createdAt,value
2023-07-24T00:01:30.700Z,100064.34
2023-07-24T00:04:00.140Z,100060.28
2023-07-24T00:06:28.523Z,100064.56
2023-07-24T00:08:56.687Z,100056.03
2023-07-24T00:11:24.752Z,100061.88
2023-07-24T00:13:54.883Z,100059.63
2023-07-24T00:16:23.060Z,100060.09
2023-07-24T00:18:51.147Z,100046.94
2023-07-24T00:21:19.078Z,100053.34
2023-07-24T00:23:47.110Z,100049.81
2023-07-24T00:26:15.023Z,100041.66
2023-07-24T00:28:43.006Z,100043.03
2023-07-24T00:31:12.532Z,100035.81
2023-07-24T00:33:40.569Z,100046.25
2023-07-24T00:36:08.665Z,100035.44
2023-07-24T00:38:36.676Z,100037.25
2023-07-24T00:41:04.702Z,100032.38
2023-07-24T00:43:32.687Z,100038.47
2023-07-24T00:46:00.928Z,100024.22
2023-07-24T00:48:30.940Z,100024.91
2023-07-24T00:51:00.255Z,100027.69
2023-07-24T00:53:28.370Z,100025.66
2023-07-24T00:55:56.466Z,100027.06
2023-07-24T00:58:24.558Z,100020.13
2023-07-24T01:00:52.654Z,100013.31
2023-07-24T01:03:20.789Z,100013.84
2023-07-24T01:05:50.223Z,100009.25
2023-07-24T01:08:18.244Z,100006.53
2023-07-24T01:10:46.270Z,100006.06
2023-07-24T01:13:21.227Z,99993.91
2023-07-24T01:15:57.057Z,99995.63
2023-07-24T01:18:26.543Z,99990.66
2023-07-24T01:21:00.640Z,99990.97
2023-07-24T01:23:43.881Z,99989.25
2023-07-24T01:26:14.106Z,99987.00
2023-07-24T01:28:42.129Z,99985.38
2023-07-24T01:31:10.286Z,99990.13
2023-07-24T01:33:38.303Z,99985.34
2023-07-24T01:36:07.524Z,99980.16
2023-07-24T01:38:36.922Z,99985.94
2023-07-24T01:41:05.900Z,99985.06
2023-07-24T01:43:35.243Z,99986.25
2023-07-24T01:46:03.459Z,99982.41
2023-07-24T01:48:31.442Z,99980.97
2023-07-24T01:50:59.355Z,99981.97
2023-07-24T01:53:27.319Z,99976.78
2023-07-24T01:55:56.943Z,99982.84
2023-07-24T01:58:24.956Z,99985.94
2023-07-24T02:00:57.171Z,99967.28
2023-07-24T02:03:25.160Z,99972.03
2023-07-24T02:05:53.640Z,99966.75
2023-07-24T02:08:21.638Z,99976.31
2023-07-24T02:10:51.437Z,99972.41
2023-07-24T02:13:19.838Z,99966.28
2023-07-24T02:15:51.387Z,99957.41
2023-07-24T02:18:21.404Z,99968.16
2023-07-24T02:20:52.713Z,99970.56
2023-07-24T02:23:20.722Z,99962.66
2023-07-24T02:25:53.144Z,99961.78
2023-07-24T02:28:21.181Z,99953.72
2023-07-24T02:30:49.449Z,99953.38
2023-07-24T02:33:17.552Z,99956.25
2023-07-24T02:35:47.009Z,99948.81
2023-07-24T02:38:16.221Z,99944.59
2023-07-24T02:40:44.182Z,99947.72
2023-07-24T02:43:12.264Z,99953.00
2023-07-24T02:45:40.865Z,99953.00
2023-07-24T02:48:09.199Z,99956.47
2023-07-24T02:50:37.292Z,99971.78
2023-07-24T02:53:06.644Z,99976.03
2023-07-24T02:55:34.813Z,99975.88
2023-07-24T02:58:02.914Z,99971.53
2023-07-24T03:00:31.117Z,99975.38
2023-07-24T03:02:59.162Z,99978.91
2023-07-24T03:05:27.391Z,99981.91
2023-07-24T03:07:55.309Z,99984.59
2023-07-24T03:10:25.820Z,99991.06
2023-07-24T03:12:54.291Z,99982.56
2023-07-24T03:15:22.754Z,99983.59
2023-07-24T03:17:50.881Z,99983.91
2023-07-24T03:20:20.524Z,99987.06
2023-07-24T03:22:48.530Z,99985.47
2023-07-24T03:25:16.665Z,99983.06
2023-07-24T03:27:46.702Z,99981.50
2023-07-24T03:30:14.639Z,99989.84
2023-07-24T03:32:42.677Z,99986.72
2023-07-24T03:35:10.851Z,99983.50
2023-07-24T03:37:40.094Z,99983.69
2023-07-24T03:40:09.336Z,99988.34
2023-07-24T03:42:37.452Z,99985.47
2023-07-24T03:45:09.603Z,99981.78
2023-07-24T03:47:38.644Z,99984.66
2023-07-24T03:50:09.054Z,99988.94
2023-07-24T03:52:37.229Z,99988.56
2023-07-24T03:55:06.222Z,99993.59
2023-07-24T03:57:34.152Z,99986.59
2023-07-24T04:00:02.064Z,99984.19
2023-07-24T04:02:41.903Z,99985.16
2023-07-24T04:05:10.196Z,100001.16
2023-07-24T04:07:38.379Z,99983.75
2023-07-24T04:10:07.819Z,99996.13
2023-07-24T04:12:35.737Z,99993.19
2023-07-24T04:15:03.718Z,99990.59
2023-07-24T04:17:31.747Z,99988.19
2023-07-24T04:20:01.178Z,99984.31
2023-07-24T04:22:29.173Z,99987.44
2023-07-24T04:24:57.158Z,99978.00
2023-07-24T04:27:25.236Z,99983.59
2023-07-24T04:29:53.138Z,99976.50
2023-07-24T04:32:21.157Z,99986.03
2023-07-24T04:34:49.122Z,99983.06
2023-07-24T04:37:18.445Z,99979.03
2023-07-24T04:39:46.677Z,99981.06
2023-07-24T04:42:14.616Z,99978.38
2023-07-24T04:44:42.538Z,99983.91
2023-07-24T04:47:10.485Z,99981.91
2023-07-24T04:49:38.639Z,99979.53
2023-07-24T04:52:07.202Z,99983.16
2023-07-24T04:54:36.575Z,99973.28
2023-07-24T04:57:05.054Z,99973.97
2023-07-24T04:59:33.156Z,99971.56
2023-07-24T05:02:01.216Z,99971.09
2023-07-24T05:04:29.310Z,99975.44
2023-07-24T05:06:57.224Z,99978.59
2023-07-24T05:09:25.180Z,99973.91
2023-07-24T05:11:54.507Z,99967.59
2023-07-24T05:14:22.465Z,99961.81
2023-07-24T05:16:50.636Z,99962.25
2023-07-24T05:19:18.661Z,99967.00
2023-07-24T05:21:46.676Z,99967.03
2023-07-24T05:24:14.614Z,99967.41
2023-07-24T05:26:42.612Z,99959.25
2023-07-24T05:29:12.017Z,99962.81
2023-07-24T05:31:39.952Z,99957.28
2023-07-24T05:34:07.966Z,99955.81
2023-07-24T05:36:35.905Z,99951.75
2023-07-24T05:39:03.874Z,99953.78
2023-07-24T05:41:31.882Z,99950.28
2023-07-24T05:43:59.844Z,99948.22
2023-07-24T05:46:29.614Z,99938.31
2023-07-24T05:48:58.061Z,99941.66
2023-07-24T05:51:26.186Z,99946.59
2023-07-24T05:53:54.489Z,99932.19
2023-07-24T05:56:22.524Z,99940.00
2023-07-24T05:58:51.331Z,99934.88
2023-07-24T06:01:19.304Z,99923.34
2023-07-24T06:03:48.741Z,99925.84
2023-07-24T06:06:16.803Z,99922.75
2023-07-24T06:08:45.023Z,99916.16
2023-07-24T06:11:12.946Z,99913.09
2023-07-24T06:13:40.970Z,99909.59
2023-07-24T06:16:09.405Z,99902.38
2023-07-24T06:18:37.499Z,99909.81
2023-07-24T06:21:07.148Z,99908.97
2023-07-24T06:23:35.208Z,99906.50
2023-07-24T06:26:03.317Z,99907.09
2023-07-24T06:28:32.470Z,99903.00
2023-07-24T06:31:00.511Z,99912.06
2023-07-24T06:33:28.530Z,99901.53
2023-07-24T06:35:56.522Z,99894.34
2023-07-24T06:38:25.872Z,99888.59
2023-07-24T06:40:53.846Z,99883.84
2023-07-24T06:43:21.949Z,99895.59
2023-07-24T06:45:49.974Z,99893.31
2023-07-24T06:48:17.979Z,99888.31
2023-07-24T06:50:46.002Z,99888.94
2023-07-24T06:53:14.053Z,99884.44
2023-07-24T06:55:43.558Z,99872.41
2023-07-24T06:58:11.705Z,99873.63
2023-07-24T07:00:39.685Z,99880.19
2023-07-24T07:03:08.003Z,99877.72
2023-07-24T07:05:36.027Z,99871.94
2023-07-24T07:08:04.120Z,99871.88
2023-07-24T07:10:32.981Z,99868.50
2023-07-24T07:13:02.331Z,99870.09
2023-07-24T07:15:30.333Z,99851.81
2023-07-24T07:17:58.402Z,99852.41
2023-07-24T07:20:26.517Z,99854.09
2023-07-24T07:22:54.576Z,99862.22
2023-07-24T07:25:22.666Z,99844.91
2023-07-24T07:27:50.768Z,99852.28
2023-07-24T07:30:21.294Z,99856.16
2023-07-24T07:32:50.426Z,99846.25
2023-07-24T07:35:18.759Z,99841.09
2023-07-24T07:37:46.756Z,99842.66
2023-07-24T07:40:14.815Z,99854.50
2023-07-24T07:42:44.836Z,99864.72
2023-07-24T07:45:13.325Z,99865.75
2023-07-24T07:47:42.786Z,99876.09
2023-07-24T07:50:11.296Z,99887.31
2023-07-24T07:52:39.392Z,99889.09
2023-07-24T07:55:08.339Z,99879.63
2023-07-24T07:57:39.252Z,99875.13
2023-07-24T08:00:08.305Z,99870.41
2023-07-24T08:02:36.491Z,99871.09
2023-07-24T08:05:12.770Z,99871.50
2023-07-24T08:07:44.344Z,99873.84
2023-07-24T08:10:13.302Z,99877.16
2023-07-24T08:12:41.314Z,99868.38
2023-07-24T08:15:10.644Z,99863.81
2023-07-24T08:17:38.745Z,99854.69
2023-07-24T08:20:09.750Z,99855.75
2023-07-24T08:22:38.012Z,99851.03
2023-07-24T08:25:06.905Z,99850.66
2023-07-24T08:27:45.326Z,99840.66
2023-07-24T08:30:23.084Z,99839.19
2023-07-24T08:32:52.287Z,99841.56
2023-07-24T08:35:21.694Z,99832.09
2023-07-24T08:37:49.680Z,99832.44
2023-07-24T08:40:18.397Z,99837.41
2023-07-24T08:42:46.863Z,99827.97
2023-07-24T08:45:15.556Z,99819.31
2023-07-24T08:47:45.832Z,99804.81
2023-07-24T08:50:16.399Z,99804.91
2023-07-24T08:52:47.734Z,99809.47
2023-07-24T08:55:16.422Z,99815.31
2023-07-24T08:57:44.472Z,99810.31
2023-07-24T09:00:13.536Z,99809.31
2023-07-24T09:02:41.772Z,99809.06
2023-07-24T09:05:10.738Z,99802.22
2023-07-24T09:07:39.860Z,99791.56
2023-07-24T09:10:12.164Z,99790.28
2023-07-24T09:12:42.367Z,99785.16
2023-07-24T09:15:12.983Z,99786.31
2023-07-24T09:17:50.078Z,99790.06
2023-07-24T09:20:31.399Z,99782.69
2023-07-24T09:25:36.508Z,99788.19
2023-07-24T09:28:10.979Z,99783.25
2023-07-24T09:30:39.649Z,99776.81
2023-07-24T09:33:08.252Z,99763.84
2023-07-24T09:35:36.444Z,99769.09
2023-07-24T09:38:06.526Z,99783.59
2023-07-24T09:40:46.410Z,99776.72
2023-07-24T09:43:36.976Z,99777.75
2023-07-24T09:46:08.506Z,99786.53
2023-07-24T09:48:43.642Z,99777.75
2023-07-24T09:51:27.040Z,99776.94
2023-07-24T09:53:58.039Z,99791.81
2023-07-24T09:56:38.913Z,99788.97
2023-07-24T09:59:14.542Z,99773.34
2023-07-24T10:01:44.019Z,99765.47
2023-07-24T10:04:12.468Z,99762.00
2023-07-24T10:06:40.529Z,99758.06
2023-07-24T10:09:09.697Z,99759.59
2023-07-24T10:11:39.158Z,99742.22
2023-07-24T10:14:07.248Z,99737.22
2023-07-24T10:16:35.286Z,99738.47
2023-07-24T10:19:03.337Z,99747.06
2023-07-24T10:21:31.781Z,99723.75
2023-07-24T10:24:02.022Z,99740.00
2023-07-24T10:26:30.145Z,99735.03
2023-07-24T10:29:00.145Z,99746.75
2023-07-24T10:31:29.142Z,99728.13
2023-07-24T10:33:58.294Z,99716.19
2023-07-24T10:36:26.376Z,99705.25
2023-07-24T10:38:56.260Z,99698.72
2023-07-24T10:41:24.541Z,99704.63
2023-07-24T10:43:53.722Z,99700.78
2023-07-24T10:46:23.411Z,99695.41
2023-07-24T10:48:53.642Z,99686.00
2023-07-24T10:51:25.220Z,99680.63
2023-07-24T10:53:54.356Z,99685.16
2023-07-24T10:56:22.893Z,99674.97
2023-07-24T10:58:51.073Z,99666.84
2023-07-24T11:01:20.666Z,99667.97
2023-07-24T11:03:52.313Z,99657.25
2023-07-24T11:06:23.117Z,99651.16
2023-07-24T11:08:54.714Z,99639.09
2023-07-24T11:11:23.648Z,99640.59
2023-07-24T11:13:51.752Z,99626.25
2023-07-24T11:16:19.744Z,99603.16
2023-07-24T11:18:55.040Z,99626.94
2023-07-24T11:21:24.787Z,99618.03
2023-07-24T11:23:53.996Z,99626.28
2023-07-24T11:26:22.874Z,99625.69
2023-07-24T11:28:51.386Z,99596.63
2023-07-24T11:31:21.880Z,99600.56
2023-07-24T11:33:53.977Z,99615.03
2023-07-24T11:36:22.683Z,99597.00
2023-07-24T11:38:51.028Z,99579.59
2023-07-24T11:41:20.043Z,99596.72
2023-07-24T11:43:49.430Z,99588.25
2023-07-24T11:46:27.558Z,99581.13
2023-07-24T11:48:59.191Z,99585.25
2023-07-24T11:51:29.534Z,99590.69
2023-07-24T11:54:07.917Z,99580.56
2023-07-24T11:56:36.085Z,99576.09
2023-07-24T11:59:12.772Z,99568.69
2023-07-24T12:01:41.085Z,99574.50
2023-07-24T12:04:10.738Z,99576.34
2023-07-24T12:06:40.204Z,99571.63
2023-07-24T12:09:09.124Z,99577.50
2023-07-24T12:11:45.129Z,99583.72
2023-07-24T12:14:15.058Z,99581.06
2023-07-24T12:16:49.369Z,99576.41
2023-07-24T12:19:18.977Z,99567.16
2023-07-24T12:21:47.018Z,99579.50
2023-07-24T12:24:15.038Z,99588.34
2023-07-24T12:26:43.089Z,99590.41
2023-07-24T12:29:11.505Z,99607.41
2023-07-24T12:31:39.681Z,99612.06
2023-07-24T12:34:07.924Z,99607.19
2023-07-24T12:36:37.537Z,99624.03
2023-07-24T12:39:05.661Z,99616.28
2023-07-24T12:41:34.350Z,99615.50
2023-07-24T12:44:02.580Z,99625.06
2023-07-24T12:46:32.827Z,99615.88
2023-07-24T12:49:00.951Z,99611.19
2023-07-24T12:51:29.255Z,99608.94
2023-07-24T12:54:01.061Z,99611.00
2023-07-24T12:56:38.202Z,99618.69
2023-07-24T12:59:06.339Z,99606.41
2023-07-24T13:01:34.864Z,99612.47
2023-07-24T13:04:03.120Z,99612.47
2023-07-24T13:06:31.509Z,99621.03
2023-07-24T13:09:01.429Z,99612.00
2023-07-24T13:11:29.999Z,99617.38
2023-07-24T13:13:59.102Z,99613.94
2023-07-24T13:16:27.543Z,99595.81
2023-07-24T13:18:58.720Z,99604.69
2023-07-24T13:21:26.828Z,99603.44
2023-07-24T13:23:54.971Z,99589.22
2023-07-24T13:26:24.582Z,99592.75
2023-07-24T13:28:52.781Z,99577.41
2023-07-24T13:31:23.006Z,99573.44
2023-07-24T13:33:51.254Z,99561.19
2023-07-24T13:36:19.509Z,99564.22
2023-07-24T13:38:47.641Z,99569.47
2023-07-24T13:41:15.940Z,99559.94
2023-07-24T13:43:45.559Z,99560.16
2023-07-24T13:46:13.800Z,99554.34
2023-07-24T13:48:42.056Z,99555.16
2023-07-24T13:51:10.194Z,99553.03
2023-07-24T13:53:38.286Z,99551.69
2023-07-24T13:56:07.368Z,99544.06
2023-07-24T13:58:35.504Z,99536.38
2023-07-24T14:01:07.399Z,99528.19
2023-07-24T14:03:35.782Z,99529.44
2023-07-24T14:06:06.442Z,99521.84
2023-07-24T14:08:34.797Z,99521.00
2023-07-24T14:11:04.478Z,99521.25
2023-07-24T14:13:32.584Z,99515.06
2023-07-24T14:16:00.648Z,99517.53
2023-07-24T14:18:30.259Z,99506.88
2023-07-24T14:21:00.496Z,99509.94
2023-07-24T14:23:28.779Z,99505.03
2023-07-24T14:25:56.926Z,99500.94
2023-07-24T14:28:25.279Z,99497.66
2023-07-24T14:30:53.904Z,99501.63
2023-07-24T14:33:23.429Z,99509.81
2023-07-24T14:35:53.043Z,99514.16
2023-07-24T14:38:21.204Z,99510.44
2023-07-24T14:40:49.354Z,99512.88
2023-07-24T14:43:17.445Z,99512.91
2023-07-24T14:45:45.627Z,99517.56
2023-07-24T14:48:14.858Z,99516.88
2023-07-24T14:50:43.502Z,99504.72
2023-07-24T14:53:13.020Z,99499.69
2023-07-24T14:55:41.350Z,99493.28
2023-07-24T14:58:09.459Z,99471.06
2023-07-24T15:00:37.629Z,99454.38
2023-07-24T15:03:05.717Z,99451.19
2023-07-24T15:05:34.102Z,99455.47
2023-07-24T15:08:03.025Z,99448.78
2023-07-24T15:10:32.840Z,99439.41
2023-07-24T15:13:02.104Z,99442.25
2023-07-24T15:15:30.154Z,99445.75
2023-07-24T15:17:59.907Z,99439.41
2023-07-24T15:20:28.133Z,99430.53
2023-07-24T15:22:56.163Z,99426.53
2023-07-24T15:25:24.304Z,99428.13
2023-07-24T15:27:53.743Z,99429.03
2023-07-24T15:30:21.765Z,99429.19
2023-07-24T15:32:49.943Z,99420.09
2023-07-24T15:35:18.418Z,99413.03
2023-07-24T15:37:47.860Z,99406.66
2023-07-24T15:40:15.988Z,99406.84
2023-07-24T15:42:44.193Z,99415.91
2023-07-24T15:45:14.014Z,99405.19
2023-07-24T15:47:42.220Z,99406.72
2023-07-24T15:50:10.619Z,99401.13
2023-07-24T15:52:39.178Z,99392.69
2023-07-24T15:55:07.852Z,99393.25
2023-07-24T15:57:35.991Z,99390.44
2023-07-24T16:00:06.486Z,99398.72
2023-07-24T16:02:42.265Z,99385.88
2023-07-24T16:05:19.193Z,99380.44
2023-07-24T16:07:47.707Z,99391.28
2023-07-24T16:10:17.638Z,99387.69
2023-07-24T16:12:45.709Z,99378.94
2023-07-24T16:15:13.880Z,99375.13
2023-07-24T16:18:05.718Z,99374.75
2023-07-24T16:20:32.461Z,99368.75
2023-07-24T16:23:03.209Z,99367.81
2023-07-24T16:25:31.285Z,99367.13
2023-07-24T16:27:59.269Z,99360.28
2023-07-24T16:30:27.865Z,99359.97
2023-07-24T16:32:57.538Z,99361.75
2023-07-24T16:35:25.735Z,99354.09
2023-07-24T16:37:53.922Z,99354.44
2023-07-24T16:40:22.017Z,99340.81
2023-07-24T16:42:51.587Z,99341.81
2023-07-24T16:47:57.110Z,99334.19
2023-07-24T16:50:25.350Z,99335.69
2023-07-24T16:52:53.308Z,99316.75
2023-07-24T16:55:21.502Z,99311.94
2023-07-24T16:57:49.692Z,99308.34
2023-07-24T17:00:18.493Z,99315.81
2023-07-24T17:02:46.868Z,99300.81
2023-07-24T17:05:17.532Z,99295.38
2023-07-24T17:07:45.837Z,99277.97
2023-07-24T17:10:15.964Z,99272.38
2023-07-24T17:12:44.414Z,99262.50
2023-07-24T17:15:12.804Z,99228.50
2023-07-24T17:17:40.812Z,99221.09
2023-07-24T17:20:09.531Z,99219.00
2023-07-24T17:22:39.183Z,99207.47
2023-07-24T17:25:07.980Z,99184.91
2023-07-24T17:27:37.933Z,99207.00
2023-07-24T17:30:07.665Z,99281.94
2023-07-24T17:32:35.872Z,99361.09
2023-07-24T17:35:04.162Z,99389.28
2023-07-24T17:37:38.418Z,99425.75
2023-07-24T17:40:11.323Z,99480.47
2023-07-24T17:42:39.393Z,99481.81
2023-07-24T17:45:08.423Z,99474.38
2023-07-24T17:47:37.188Z,99453.00
2023-07-24T17:50:08.334Z,99452.66
2023-07-24T17:52:37.471Z,99471.97
2023-07-24T17:55:06.627Z,99491.28
2023-07-24T17:57:36.252Z,99525.09
2023-07-24T18:00:05.718Z,99519.28
2023-07-24T18:02:34.008Z,99501.22
2023-07-24T18:05:02.156Z,99528.75
2023-07-24T18:07:30.296Z,99530.19
2023-07-24T18:09:58.455Z,99555.25
2023-07-24T18:12:26.948Z,99597.28
2023-07-24T18:14:57.288Z,99655.59
2023-07-24T18:17:25.548Z,99687.84
2023-07-24T18:19:53.892Z,99667.31
2023-07-24T18:22:22.234Z,99684.78
2023-07-24T18:24:50.511Z,99708.38
2023-07-24T18:27:18.695Z,99666.38
2023-07-24T18:29:47.111Z,99672.63
2023-07-24T18:32:16.443Z,99650.88
2023-07-24T18:34:44.587Z,99640.22
2023-07-24T18:37:13.330Z,99627.97
2023-07-24T18:39:41.563Z,99585.34
2023-07-24T18:42:09.648Z,99540.84
2023-07-24T18:44:37.722Z,99543.22
2023-07-24T18:47:06.156Z,99571.44
2023-07-24T18:49:35.651Z,99598.63
2023-07-24T18:52:03.779Z,99588.34
2023-07-24T18:54:31.990Z,99569.16
2023-07-24T18:57:00.182Z,99567.91
2023-07-24T18:59:30.529Z,99548.56
2023-07-24T19:01:59.263Z,99527.38
2023-07-24T19:04:28.689Z,99543.47
2023-07-24T19:06:58.292Z,99566.38
2023-07-24T19:09:26.451Z,99578.31
2023-07-24T19:11:54.536Z,99607.16
2023-07-24T19:14:22.702Z,99631.19
2023-07-24T19:16:50.984Z,99644.06
2023-07-24T19:19:19.030Z,99635.22
2023-07-24T19:21:47.336Z,99648.06
2023-07-24T19:24:16.895Z,99637.25
2023-07-24T19:26:45.018Z,99620.44
2023-07-24T19:29:13.056Z,99621.28
2023-07-24T19:31:41.130Z,99634.47
2023-07-24T19:34:09.689Z,99645.84
2023-07-24T19:36:37.819Z,99652.09
2023-07-24T19:39:07.120Z,99665.94
2023-07-24T19:41:36.630Z,99677.72
2023-07-24T19:44:05.024Z,99681.41
2023-07-24T19:46:33.104Z,99680.88
2023-07-24T19:49:01.847Z,99677.91
2023-07-24T19:51:30.528Z,99681.50
2023-07-24T19:53:58.804Z,99694.44
2023-07-24T19:56:27.043Z,99681.59
2023-07-24T19:58:56.545Z,99686.19
2023-07-24T20:01:26.741Z,99687.00
2023-07-24T20:03:55.157Z,99678.66
2023-07-24T20:06:23.574Z,99670.59
2023-07-24T20:08:51.723Z,99669.22
2023-07-24T20:11:20.003Z,99662.91
2023-07-24T20:13:48.350Z,99651.38
2023-07-24T20:16:20.345Z,99663.91
2023-07-24T20:18:48.866Z,99663.72
2023-07-24T20:21:17.024Z,99651.44
2023-07-24T20:23:45.333Z,99658.16
2023-07-24T20:26:16.714Z,99668.59
2023-07-24T20:28:45.006Z,99665.28
2023-07-24T20:31:13.209Z,99675.91
2023-07-24T20:33:43.093Z,99672.16
2023-07-24T20:36:13.731Z,99685.97
2023-07-24T20:38:41.855Z,99696.16
2023-07-24T20:41:09.984Z,99688.13
2023-07-24T20:43:37.964Z,99699.19
2023-07-24T20:46:13.091Z,99700.41
2023-07-24T20:48:43.500Z,99690.91
2023-07-24T20:51:19.902Z,99696.75
2023-07-24T20:53:48.388Z,99705.53
2023-07-24T20:56:18.052Z,99716.81
2023-07-24T20:58:46.244Z,99716.34
2023-07-24T21:01:14.300Z,99723.97
2023-07-24T21:03:44.118Z,99735.09
2023-07-24T21:06:12.309Z,99733.97
2023-07-24T21:08:40.431Z,99741.53
2023-07-24T21:11:08.530Z,99731.59
2023-07-24T21:13:36.582Z,99723.97
2023-07-24T21:16:04.866Z,99732.16
2023-07-24T21:18:32.902Z,99736.91
2023-07-24T21:21:02.522Z,99735.44
2023-07-24T21:23:30.750Z,99741.94
2023-07-24T21:25:58.673Z,99746.44
2023-07-24T21:28:26.711Z,99746.25
2023-07-24T21:30:55.053Z,99743.22
2023-07-24T21:33:22.990Z,99746.09
2023-07-24T21:36:00.472Z,99729.56
2023-07-24T21:38:29.878Z,99743.84
2023-07-24T21:40:57.936Z,99745.16
2023-07-24T21:43:26.656Z,99746.03
2023-07-24T21:45:55.877Z,99738.53
2023-07-24T21:48:23.971Z,99737.06
2023-07-24T21:50:53.369Z,99737.72
2023-07-24T21:53:21.830Z,99729.09
2023-07-24T21:55:51.413Z,99728.44
2023-07-24T21:58:19.513Z,99737.72
2023-07-24T22:00:47.517Z,99735.94
2023-07-24T22:03:15.576Z,99744.09
2023-07-24T22:05:43.858Z,99724.88
2023-07-24T22:08:11.821Z,99735.13
2023-07-24T22:10:39.780Z,99723.66
2023-07-24T22:13:09.200Z,99721.56
2023-07-24T22:15:37.170Z,99717.25
2023-07-24T22:18:05.548Z,99719.19
2023-07-24T22:20:40.457Z,99701.16
2023-07-24T22:23:09.424Z,99692.53
2023-07-24T22:25:37.385Z,99698.38
2023-07-24T22:28:05.650Z,99696.19
2023-07-24T22:30:35.124Z,99680.31
2023-07-24T22:33:03.253Z,99678.66
2023-07-24T22:35:31.313Z,99665.47
2023-07-24T22:37:59.298Z,99670.69
2023-07-24T22:40:29.624Z,99674.72
2023-07-24T22:42:57.525Z,99679.03
2023-07-24T22:45:25.978Z,99682.69
2023-07-24T22:47:56.205Z,99677.47
2023-07-24T22:50:24.323Z,99677.28
2023-07-24T22:52:52.262Z,99685.44
2023-07-24T22:55:20.385Z,99691.25
2023-07-24T22:57:48.501Z,99692.47
2023-07-24T23:00:16.834Z,99702.88
2023-07-24T23:02:44.976Z,99710.72
2023-07-24T23:05:14.914Z,99715.69
2023-07-24T23:07:42.860Z,99720.72
2023-07-24T23:10:11.767Z,99710.63
2023-07-24T23:12:39.773Z,99713.16
2023-07-24T23:15:08.533Z,99710.69
2023-07-24T23:17:36.752Z,99712.50
2023-07-24T23:20:05.223Z,99713.69
2023-07-24T23:22:34.610Z,99703.59
2023-07-24T23:25:02.630Z,99707.63
2023-07-24T23:27:30.615Z,99714.38
2023-07-24T23:29:58.633Z,99719.69
2023-07-24T23:32:26.628Z,99720.16
2023-07-24T23:34:54.739Z,99720.69
2023-07-24T23:37:22.786Z,99718.38
2023-07-24T23:39:52.320Z,99720.50
2023-07-24T23:42:20.311Z,99719.03
2023-07-24T23:44:48.502Z,99721.22
2023-07-24T23:47:17.754Z,99721.41
2023-07-24T23:49:45.843Z,99722.22
2023-07-24T23:52:13.848Z,99724.53
2023-07-24T23:54:41.768Z,99731.50
2023-07-24T23:57:11.038Z,99739.31
2023-07-24T23:59:38.984Z,99734.31
